Flugwetter Augsburg

[source: ADDS]
METAR
EDMA 261820Z 14002KT CAVOK 01/00 Q1018 =
TAF EDMA 261700Z 2618/2703 13004KT CAVOK PROB30 TEMPO 2620/2703 3500 BR
TAF
TAF EDMA 261700Z 2618/2703 13004KT CAVOK PROB30 TEMPO 2620/2703 3500 BR =
Cookies erleichtern die Bereitstellung unserer Dienste. Mit der Nutzung unserer Dienste erklären Sie sich damit einverstanden, dass wir Cookies verwenden.
Weitere Informationen Ok